createdAt,value
2018-08-13T00:00:33.112Z,8.97
2018-08-13T00:03:03.304Z,8.77
2018-08-13T00:05:33.431Z,9.10
2018-08-13T00:08:03.596Z,9.07
2018-08-13T00:10:33.695Z,8.33
2018-08-13T00:13:03.868Z,8.60
2018-08-13T00:15:33.995Z,8.83
2018-08-13T00:18:04.283Z,8.83
2018-08-13T00:20:34.431Z,9.30
2018-08-13T00:23:04.587Z,9.23
2018-08-13T00:25:35.012Z,9.43
2018-08-13T00:28:06.556Z,9.57
2018-08-13T00:30:36.891Z,9.33
2018-08-13T00:33:08.788Z,9.10
2018-08-13T00:35:39.039Z,8.50
2018-08-13T00:38:09.236Z,8.77
2018-08-13T00:40:39.420Z,9.10
2018-08-13T00:43:09.639Z,9.20
2018-08-13T00:45:39.805Z,9.30
2018-08-13T00:48:09.943Z,8.87
2018-08-13T00:50:40.073Z,9.07
2018-08-13T00:53:10.571Z,9.33
2018-08-13T00:55:40.679Z,9.50
2018-08-13T00:58:10.787Z,9.60
2018-08-13T01:00:40.978Z,9.47
2018-08-13T01:03:11.116Z,9.17
2018-08-13T01:05:41.302Z,10.00
2018-08-13T01:08:11.448Z,8.47
2018-08-13T01:10:41.640Z,9.10
2018-08-13T01:13:11.812Z,10.00
2018-08-13T01:15:41.990Z,8.97
2018-08-13T01:18:12.130Z,9.73
2018-08-13T01:20:42.236Z,9.27
2018-08-13T01:23:12.406Z,9.97
2018-08-13T01:25:42.543Z,9.40
2018-08-13T01:28:12.652Z,10.27
2018-08-13T01:30:42.793Z,9.47
2018-08-13T01:33:12.924Z,9.43
2018-08-13T01:35:43.036Z,9.67
2018-08-13T01:38:13.120Z,9.03
2018-08-13T01:40:43.227Z,9.70
2018-08-13T01:43:13.358Z,9.30
2018-08-13T01:45:43.465Z,9.63
2018-08-13T01:48:13.588Z,9.53
2018-08-13T01:50:44.048Z,9.60
2018-08-13T01:53:14.155Z,9.37
2018-08-13T01:55:44.303Z,9.17
2018-08-13T01:58:14.415Z,9.70
2018-08-13T02:00:44.913Z,9.43
2018-08-13T02:03:14.991Z,9.80
2018-08-13T02:05:45.156Z,9.60
2018-08-13T02:08:15.264Z,10.03
2018-08-13T02:10:45.382Z,9.50
2018-08-13T02:13:15.560Z,9.50
2018-08-13T02:15:45.698Z,10.03
2018-08-13T02:18:17.592Z,10.00
2018-08-13T02:20:47.700Z,9.67
2018-08-13T02:23:17.835Z,9.63
2018-08-13T02:25:47.996Z,10.13
2018-08-13T02:28:18.164Z,10.03
2018-08-13T02:30:48.307Z,10.80
2018-08-13T02:33:18.494Z,9.67
2018-08-13T02:35:48.647Z,9.57
2018-08-13T02:38:18.768Z,9.13
2018-08-13T02:40:48.920Z,9.73
2018-08-13T02:43:19.043Z,10.23
2018-08-13T02:45:49.160Z,10.73
2018-08-13T02:48:23.692Z,9.97
2018-08-13T02:50:53.844Z,10.27
2018-08-13T02:53:23.936Z,9.53
2018-08-13T02:55:54.084Z,9.57
2018-08-13T02:58:24.168Z,9.87
2018-08-13T03:00:54.406Z,10.20
2018-08-13T03:03:24.575Z,10.07
2018-08-13T03:05:54.677Z,9.53
2018-08-13T03:08:24.781Z,10.20
2018-08-13T03:10:54.885Z,9.10
2018-08-13T03:13:25.017Z,10.33
2018-08-13T03:15:55.140Z,10.50
2018-08-13T03:18:25.267Z,10.50
2018-08-13T03:20:55.408Z,10.17
2018-08-13T03:23:25.508Z,10.33
2018-08-13T03:25:55.692Z,10.10
2018-08-13T03:28:25.838Z,9.10
2018-08-13T03:30:56.206Z,9.33
2018-08-13T03:33:26.357Z,9.97
2018-08-13T03:35:56.508Z,10.03
2018-08-13T03:38:26.692Z,9.87
2018-08-13T03:40:56.812Z,9.80
2018-08-13T03:43:27.000Z,10.23
2018-08-13T03:45:57.109Z,10.23
2018-08-13T03:48:27.232Z,9.93
2018-08-13T03:50:57.365Z,10.10
2018-08-13T03:53:27.593Z,9.93
2018-08-13T03:55:57.766Z,9.87
2018-08-13T03:58:27.934Z,10.13
2018-08-13T04:00:58.089Z,10.00
2018-08-13T04:03:28.220Z,10.07
2018-08-13T04:05:58.425Z,10.17
2018-08-13T04:08:28.657Z,9.37
2018-08-13T04:10:58.825Z,10.00
2018-08-13T04:13:29.029Z,10.50
2018-08-13T04:15:59.227Z,10.47
2018-08-13T04:18:29.373Z,10.67
2018-08-13T04:20:59.544Z,9.97
2018-08-13T04:23:29.728Z,10.73
2018-08-13T04:25:59.891Z,10.07
2018-08-13T04:28:30.048Z,8.87
2018-08-13T04:31:00.172Z,9.00
2018-08-13T04:33:30.321Z,8.70
2018-08-13T04:36:00.490Z,8.63
2018-08-13T04:38:30.688Z,8.60
2018-08-13T04:41:00.761Z,8.50
2018-08-13T04:43:30.868Z,8.47
2018-08-13T04:46:00.990Z,8.37
2018-08-13T04:48:31.173Z,8.27
2018-08-13T04:51:01.335Z,7.80
2018-08-13T04:53:31.472Z,8.03
2018-08-13T04:56:01.613Z,8.30
2018-08-13T04:58:31.740Z,7.77
2018-08-13T05:01:01.908Z,8.33
2018-08-13T05:03:31.993Z,7.63
2018-08-13T05:06:02.246Z,6.80
2018-08-13T05:08:32.408Z,7.27
2018-08-13T05:11:03.430Z,7.53
2018-08-13T05:13:33.560Z,7.00
2018-08-13T05:16:03.731Z,7.37
2018-08-13T05:18:34.819Z,6.83
2018-08-13T05:21:05.232Z,6.77
2018-08-13T05:23:35.389Z,7.67
2018-08-13T05:26:05.548Z,19.13
2018-08-13T05:28:35.802Z,7.47
2018-08-13T05:31:05.957Z,54.37
2018-08-13T05:33:36.125Z,39.40
2018-08-13T05:36:06.552Z,15.50
2018-08-13T05:38:36.722Z,9.13
2018-08-13T05:41:06.942Z,9.20
2018-08-13T05:43:37.199Z,18.60
2018-08-13T05:46:07.373Z,51.10
2018-08-13T05:48:37.511Z,11.77
2018-08-13T05:51:07.749Z,8.17
2018-08-13T05:53:37.971Z,8.50
2018-08-13T05:56:08.204Z,7.50
2018-08-13T05:58:38.401Z,7.60
2018-08-13T06:01:08.993Z,8.77
2018-08-13T06:03:39.201Z,7.23
2018-08-13T06:06:09.337Z,7.73
2018-08-13T06:08:39.500Z,7.50
2018-08-13T06:11:09.688Z,7.17
2018-08-13T06:13:39.798Z,6.87
2018-08-13T06:16:09.921Z,6.97
2018-08-13T06:18:40.091Z,6.67
2018-08-13T06:21:10.317Z,6.80
2018-08-13T06:23:40.521Z,7.67
2018-08-13T06:26:11.485Z,7.47
2018-08-13T06:28:41.658Z,7.10
2018-08-13T06:31:11.909Z,6.97
2018-08-13T06:33:42.138Z,6.83
2018-08-13T06:36:12.388Z,7.30
2018-08-13T06:38:42.517Z,7.00
2018-08-13T06:41:12.711Z,7.60
2018-08-13T06:43:43.007Z,7.40
2018-08-13T06:46:13.324Z,7.90
2018-08-13T06:48:43.520Z,7.77
2018-08-13T06:51:13.744Z,7.67
2018-08-13T06:53:43.886Z,7.73
2018-08-13T06:56:14.030Z,7.80
2018-08-13T06:58:44.169Z,7.30
2018-08-13T07:01:14.364Z,7.77
2018-08-13T07:03:44.600Z,7.57
2018-08-13T07:06:16.236Z,7.30
2018-08-13T07:08:46.380Z,7.23
2018-08-13T07:11:16.535Z,7.90
2018-08-13T07:13:46.710Z,7.97
2018-08-13T07:16:16.912Z,7.97
2018-08-13T07:18:47.091Z,7.80
2018-08-13T07:21:17.239Z,7.30
2018-08-13T07:23:47.437Z,7.47
2018-08-13T07:26:17.574Z,7.53
2018-08-13T07:28:54.522Z,7.33
2018-08-13T07:31:24.665Z,9.70
2018-08-13T07:33:55.174Z,28.30
2018-08-13T07:36:25.311Z,14.60
2018-08-13T07:38:55.542Z,9.33
2018-08-13T07:41:25.716Z,8.47
2018-08-13T07:43:55.926Z,21.10
2018-08-13T07:46:26.146Z,13.83
2018-08-13T07:48:56.428Z,10.37
2018-08-13T07:51:26.576Z,13.57
2018-08-13T07:53:56.696Z,12.13
2018-08-13T07:56:26.929Z,20.03
2018-08-13T07:58:57.135Z,12.50
2018-08-13T08:01:27.395Z,14.33
2018-08-13T08:03:57.556Z,14.00
2018-08-13T08:06:27.725Z,11.80
2018-08-13T08:08:57.882Z,8.50
2018-08-13T08:11:28.084Z,8.93
2018-08-13T08:13:58.289Z,8.07
2018-08-13T08:16:28.499Z,9.15
2018-08-13T08:18:58.630Z,19.55
2018-08-13T08:21:28.868Z,20.75
2018-08-13T08:23:58.970Z,9.88
2018-08-13T08:26:29.209Z,7.62
2018-08-13T08:28:59.367Z,8.65
2018-08-13T08:31:29.620Z,21.80
2018-08-13T08:33:59.782Z,21.52
2018-08-13T08:36:30.253Z,7.40
2018-08-13T08:39:00.428Z,7.17
2018-08-13T08:41:30.600Z,14.30
2018-08-13T08:44:00.765Z,51.92
2018-08-13T08:46:30.944Z,17.37
2018-08-13T08:49:01.224Z,10.00
2018-08-13T08:51:31.377Z,11.95
2018-08-13T08:54:01.528Z,14.43
2018-08-13T08:56:31.737Z,9.50
2018-08-13T08:59:01.957Z,11.73
2018-08-13T09:01:32.258Z,9.33
2018-08-13T09:04:02.540Z,9.10
2018-08-13T09:06:32.728Z,14.13
2018-08-13T09:09:02.937Z,9.23
2018-08-13T09:11:33.088Z,8.15
2018-08-13T09:14:03.427Z,10.63
2018-08-13T09:16:33.743Z,15.85
2018-08-13T09:19:20.710Z,17.45
2018-08-13T09:21:54.533Z,9.20
2018-08-13T09:24:41.504Z,7.90
2018-08-13T09:27:28.522Z,15.48
2018-08-13T09:30:15.601Z,14.50
2018-08-13T09:34:04.416Z,10.98
2018-08-13T09:36:34.662Z,10.57
2018-08-13T09:39:09.492Z,9.30
2018-08-13T09:41:39.649Z,10.00
2018-08-13T09:44:09.796Z,9.58
2018-08-13T09:46:39.953Z,7.63
2018-08-13T09:49:10.118Z,7.83
2018-08-13T09:51:40.282Z,7.87
2018-08-13T09:54:10.599Z,7.70
2018-08-13T09:56:40.705Z,7.30
2018-08-13T09:59:10.849Z,7.53
2018-08-13T10:01:40.996Z,7.23
2018-08-13T10:04:11.136Z,8.00
2018-08-13T10:06:41.275Z,8.37
2018-08-13T10:09:11.526Z,8.10
2018-08-13T10:11:41.649Z,8.27
2018-08-13T10:14:11.776Z,10.20
2018-08-13T10:16:42.159Z,12.47
2018-08-13T10:19:12.257Z,9.63
2018-08-13T10:21:42.396Z,8.00
2018-08-13T10:24:12.542Z,7.90
2018-08-13T10:26:42.647Z,7.80
2018-08-13T10:29:12.749Z,7.83
2018-08-13T10:31:42.876Z,7.50
2018-08-13T10:34:13.054Z,7.70
2018-08-13T10:36:43.213Z,7.40
2018-08-13T10:39:13.772Z,7.07
2018-08-13T10:41:43.999Z,7.33
2018-08-13T10:44:14.165Z,7.60
2018-08-13T10:46:44.365Z,6.87
2018-08-13T10:49:14.512Z,7.10
2018-08-13T10:51:44.714Z,6.97
2018-08-13T10:54:14.845Z,7.30
2018-08-13T10:56:44.996Z,7.10
2018-08-13T10:59:15.201Z,6.70
2018-08-13T11:01:45.301Z,7.00
2018-08-13T11:04:15.596Z,7.60
2018-08-13T11:06:45.748Z,7.20
2018-08-13T11:09:15.948Z,7.03
2018-08-13T11:11:46.108Z,7.23
2018-08-13T11:14:16.219Z,7.20
2018-08-13T11:16:46.373Z,6.90
2018-08-13T11:19:16.677Z,7.13
2018-08-13T11:21:46.920Z,6.90
2018-08-13T11:24:16.976Z,7.37
2018-08-13T11:26:47.116Z,6.83
2018-08-13T11:29:17.293Z,7.20
2018-08-13T11:31:47.436Z,6.93
2018-08-13T11:34:17.572Z,7.20
2018-08-13T11:36:47.719Z,7.17
2018-08-13T11:39:17.868Z,7.43
2018-08-13T11:41:47.985Z,7.63
2018-08-13T11:44:18.168Z,7.37
2018-08-13T11:46:48.323Z,7.67
2018-08-13T11:49:18.475Z,7.70
2018-08-13T11:51:48.649Z,7.80
2018-08-13T11:54:18.799Z,7.53
2018-08-13T11:56:48.972Z,7.20
2018-08-13T11:59:24.841Z,7.50
2018-08-13T12:01:55.025Z,7.40
2018-08-13T12:04:25.096Z,7.33
2018-08-13T12:06:55.260Z,7.87
2018-08-13T12:09:25.364Z,7.37
2018-08-13T12:11:55.605Z,7.23
2018-08-13T12:14:25.736Z,7.70
2018-08-13T12:16:55.892Z,7.47
2018-08-13T12:19:26.106Z,7.40
2018-08-13T12:21:56.236Z,7.77
2018-08-13T12:24:26.422Z,7.43
2018-08-13T12:26:56.569Z,7.10
2018-08-13T12:29:26.684Z,7.03
2018-08-13T12:31:56.805Z,7.60
2018-08-13T12:34:26.913Z,7.53
2018-08-13T12:37:02.444Z,8.13
2018-08-13T12:39:33.058Z,12.23
2018-08-13T12:42:03.324Z,7.30
2018-08-13T12:44:33.467Z,9.10
2018-08-13T12:47:03.656Z,17.63
2018-08-13T12:49:34.001Z,8.00
2018-08-13T12:52:04.325Z,10.50
2018-08-13T12:54:34.502Z,9.40
2018-08-13T12:57:05.075Z,12.00
2018-08-13T12:59:35.215Z,12.50
2018-08-13T13:02:05.363Z,13.60
2018-08-13T13:04:35.568Z,8.40
2018-08-13T13:07:05.828Z,7.70
2018-08-13T13:09:36.136Z,7.70
2018-08-13T13:12:06.358Z,7.87
2018-08-13T13:14:36.622Z,7.97
2018-08-13T13:17:06.765Z,7.97
2018-08-13T13:19:36.912Z,8.13
2018-08-13T13:22:07.056Z,7.53
2018-08-13T13:24:37.201Z,7.13
2018-08-13T13:27:07.388Z,7.23
2018-08-13T13:29:37.541Z,7.10
2018-08-13T13:32:07.800Z,8.07
2018-08-13T13:34:37.976Z,7.90
2018-08-13T13:37:08.255Z,7.27
2018-08-13T13:39:38.360Z,7.57
2018-08-13T13:42:08.641Z,7.40
2018-08-13T13:44:38.811Z,7.20
2018-08-13T13:47:08.957Z,7.62
2018-08-13T13:49:39.110Z,7.20
2018-08-13T13:52:09.308Z,7.90
2018-08-13T13:54:39.417Z,7.30
2018-08-13T13:57:09.767Z,10.13
2018-08-13T13:59:39.872Z,9.47
2018-08-13T14:02:10.069Z,7.93
2018-08-13T14:04:40.196Z,7.45
2018-08-13T14:07:10.411Z,8.03
2018-08-13T14:09:40.579Z,8.63
2018-08-13T14:12:10.708Z,8.10
2018-08-13T14:14:40.840Z,7.47
2018-08-13T14:17:10.976Z,8.30
2018-08-13T14:19:41.112Z,8.05
2018-08-13T14:22:11.264Z,8.13
2018-08-13T14:24:41.407Z,8.83
2018-08-13T14:27:11.595Z,8.18
2018-08-13T14:29:41.800Z,8.57
2018-08-13T14:32:11.912Z,8.70
2018-08-13T14:34:42.136Z,8.48
2018-08-13T14:37:12.225Z,8.20
2018-08-13T14:39:42.361Z,8.65
2018-08-13T14:42:12.591Z,8.50
2018-08-13T14:44:42.691Z,8.90
2018-08-13T14:47:12.830Z,8.70
2018-08-13T14:49:42.955Z,8.53
2018-08-13T14:52:13.149Z,8.48
2018-08-13T14:54:43.268Z,8.55
2018-08-13T14:57:13.456Z,8.08
2018-08-13T14:59:43.612Z,8.80
2018-08-13T15:02:13.732Z,8.35
2018-08-13T15:04:43.960Z,9.23
2018-08-13T15:07:14.097Z,8.83
2018-08-13T15:09:44.225Z,8.33
2018-08-13T15:12:14.428Z,10.83
2018-08-13T15:14:44.517Z,13.10
2018-08-13T15:17:14.704Z,8.80
2018-08-13T15:19:44.864Z,8.73
2018-08-13T15:22:15.060Z,8.50
2018-08-13T15:24:45.184Z,9.17
2018-08-13T15:27:15.421Z,8.85
2018-08-13T15:29:45.483Z,8.63
2018-08-13T15:32:15.621Z,8.83
2018-08-13T15:34:45.744Z,9.07
2018-08-13T15:37:15.844Z,8.83
2018-08-13T15:39:46.028Z,8.90
2018-08-13T15:42:16.165Z,8.73
2018-08-13T15:44:46.274Z,9.13
2018-08-13T15:47:16.417Z,8.70
2018-08-13T15:49:46.549Z,8.90
2018-08-13T15:52:16.692Z,8.90
2018-08-13T15:54:46.861Z,9.40
2018-08-13T15:57:16.975Z,8.97
2018-08-13T15:59:47.140Z,8.70
2018-08-13T16:02:17.305Z,8.80
2018-08-13T16:04:47.495Z,9.17
2018-08-13T16:07:17.609Z,8.87
2018-08-13T16:09:47.777Z,8.80
2018-08-13T16:12:17.900Z,9.03
2018-08-13T16:14:49.088Z,9.20
2018-08-13T16:17:19.443Z,8.60
2018-08-13T16:19:49.615Z,8.60
2018-08-13T16:22:19.889Z,8.50
2018-08-13T16:24:50.025Z,8.83
2018-08-13T16:27:20.169Z,9.30
2018-08-13T16:29:50.752Z,9.13
2018-08-13T16:32:20.893Z,9.08
2018-08-13T16:34:51.448Z,8.70
2018-08-13T16:37:21.901Z,8.97
2018-08-13T16:39:52.022Z,8.80
2018-08-13T16:42:22.168Z,9.50
2018-08-13T16:44:52.564Z,9.23
2018-08-13T16:47:22.717Z,9.93
2018-08-13T16:49:52.832Z,27.50
2018-08-13T16:52:23.209Z,23.20
2018-08-13T16:54:53.404Z,11.93
2018-08-13T16:57:23.533Z,31.13
2018-08-13T16:59:53.677Z,143.20
2018-08-13T17:02:24.040Z,40.10
2018-08-13T17:04:54.290Z,26.83
2018-08-13T17:07:24.527Z,18.67
2018-08-13T17:09:54.676Z,13.10
2018-08-13T17:12:25.093Z,25.93
2018-08-13T17:14:55.544Z,28.70
2018-08-13T17:17:25.721Z,31.00
2018-08-13T17:19:56.233Z,57.60
2018-08-13T17:22:26.537Z,39.93
2018-08-13T17:24:56.715Z,24.70
2018-08-13T17:27:27.005Z,20.50
2018-08-13T17:29:57.289Z,23.90
2018-08-13T17:32:27.494Z,71.43
2018-08-13T17:34:57.662Z,27.87
2018-08-13T17:37:27.831Z,32.17
2018-08-13T17:39:57.997Z,93.73
2018-08-13T17:42:28.382Z,93.10
2018-08-13T17:44:58.509Z,78.37
2018-08-13T17:47:28.793Z,27.77
2018-08-13T17:49:59.001Z,14.17
2018-08-13T17:52:29.229Z,12.50
2018-08-13T17:54:59.600Z,22.50
2018-08-13T17:57:29.803Z,59.20
2018-08-13T18:00:00.157Z,86.47
2018-08-13T18:02:30.753Z,23.53
2018-08-13T18:05:00.858Z,23.93
2018-08-13T18:07:31.113Z,21.33
2018-08-13T18:10:01.249Z,54.97
2018-08-13T18:12:31.432Z,44.50
2018-08-13T18:15:01.822Z,27.00
2018-08-13T18:17:31.998Z,14.10
2018-08-13T18:20:02.161Z,21.70
2018-08-13T18:22:32.337Z,17.77
2018-08-13T18:25:02.887Z,33.10
2018-08-13T18:27:33.004Z,34.43
2018-08-13T18:30:03.573Z,15.77
2018-08-13T18:32:34.120Z,27.67
2018-08-13T18:35:04.912Z,17.00
2018-08-13T18:37:35.642Z,24.47
2018-08-13T18:40:10.687Z,17.80
2018-08-13T19:01:26.027Z,16.80
2018-08-13T19:04:02.486Z,16.23
2018-08-13T19:06:38.288Z,18.30
2018-08-13T19:09:14.084Z,31.87
2018-08-13T19:11:50.383Z,66.93
2018-08-13T19:14:25.972Z,249.40
2018-08-13T19:17:01.581Z,175.37
2018-08-13T19:19:31.948Z,113.93
2018-08-13T19:22:02.449Z,47.83
2018-08-13T19:24:32.747Z,94.80
2018-08-13T19:27:03.179Z,21.40
2018-08-13T19:29:33.389Z,100.07
2018-08-13T19:32:03.604Z,96.30
2018-08-13T19:34:33.749Z,56.83
2018-08-13T19:37:03.981Z,52.50
2018-08-13T19:39:34.153Z,41.10
2018-08-13T19:42:04.492Z,43.37
2018-08-13T19:44:34.811Z,51.23
2018-08-13T19:47:05.758Z,42.37
2018-08-13T19:49:35.965Z,28.30
2018-08-13T19:52:07.190Z,21.13
2018-08-13T19:54:37.781Z,30.47
2018-08-13T19:57:10.919Z,22.60
2018-08-13T19:59:41.068Z,22.40
2018-08-13T20:02:11.427Z,22.37
2018-08-13T20:04:41.719Z,18.73
2018-08-13T20:07:11.854Z,19.20
2018-08-13T20:09:42.291Z,20.10
2018-08-13T20:12:12.533Z,17.13
2018-08-13T20:14:42.668Z,16.50
2018-08-13T20:17:12.829Z,18.57
2018-08-13T20:19:43.076Z,16.50
2018-08-13T20:22:15.600Z,46.47
2018-08-13T20:24:45.795Z,45.50
2018-08-13T20:27:15.921Z,22.00
2018-08-13T20:29:46.081Z,24.20
2018-08-13T20:32:16.242Z,63.07
2018-08-13T20:34:46.384Z,23.60
2018-08-13T20:37:16.545Z,18.00
2018-08-13T20:39:46.693Z,19.37
2018-08-13T20:42:16.881Z,19.63
2018-08-13T20:44:47.062Z,20.10
2018-08-13T20:47:17.241Z,17.60
2018-08-13T20:49:47.424Z,18.20
2018-08-13T20:52:17.600Z,16.33
2018-08-13T20:54:47.752Z,18.07
2018-08-13T20:57:17.884Z,16.83
2018-08-13T20:59:48.060Z,16.47
2018-08-13T21:02:18.468Z,16.13
2018-08-13T21:04:48.664Z,16.97
2018-08-13T21:07:18.821Z,18.03
2018-08-13T21:09:49.074Z,16.00
2018-08-13T21:12:19.196Z,15.90
2018-08-13T21:14:49.441Z,16.00
2018-08-13T21:17:19.628Z,15.60
2018-08-13T21:19:49.809Z,15.90
2018-08-13T21:22:19.960Z,16.10
2018-08-13T21:24:50.073Z,16.10
2018-08-13T21:27:20.224Z,15.20
2018-08-13T21:29:50.448Z,16.23
2018-08-13T21:32:20.669Z,16.53
2018-08-13T21:34:50.900Z,16.50
2018-08-13T21:37:21.100Z,15.57
2018-08-13T21:39:51.221Z,15.23
2018-08-13T21:42:21.393Z,23.50
2018-08-13T21:44:51.514Z,83.17
2018-08-13T21:47:21.648Z,17.40
2018-08-13T21:49:51.808Z,17.10
2018-08-13T21:52:22.024Z,15.63
2018-08-13T21:54:52.272Z,17.50
2018-08-13T21:57:24.660Z,16.53
2018-08-13T21:59:55.924Z,16.63
2018-08-13T22:02:26.052Z,14.53
2018-08-13T22:04:56.238Z,16.33
2018-08-13T22:07:26.700Z,15.40
2018-08-13T22:09:56.838Z,15.30
2018-08-13T22:12:27.024Z,13.80
2018-08-13T22:14:57.245Z,14.90
2018-08-13T22:17:34.045Z,14.70
2018-08-13T22:20:04.476Z,14.57
2018-08-13T22:22:34.607Z,14.07
2018-08-13T22:25:06.314Z,14.73
2018-08-13T22:27:36.473Z,23.27
2018-08-13T22:30:08.920Z,39.67
2018-08-13T22:32:39.145Z,16.73
2018-08-13T22:35:10.821Z,13.83
2018-08-13T22:37:41.871Z,14.53
2018-08-13T22:40:17.657Z,15.67
2018-08-13T22:42:47.901Z,14.77
2018-08-13T22:45:23.028Z,14.47
2018-08-13T22:47:53.199Z,13.27
2018-08-13T22:50:23.404Z,13.83
2018-08-13T22:52:53.561Z,13.73
2018-08-13T22:55:23.748Z,13.10
2018-08-13T22:57:53.931Z,12.60
2018-08-13T23:00:24.776Z,13.07
2018-08-13T23:02:54.997Z,13.10
2018-08-13T23:05:26.737Z,11.57
2018-08-13T23:07:56.912Z,13.33
2018-08-13T23:10:27.047Z,12.50
2018-08-13T23:12:57.567Z,12.03
2018-08-13T23:15:27.700Z,12.40
2018-08-13T23:17:57.844Z,11.43
2018-08-13T23:20:29.526Z,11.23
2018-08-13T23:23:00.837Z,11.33
2018-08-13T23:25:32.176Z,11.23
2018-08-13T23:28:04.026Z,11.13
2018-08-13T23:30:34.953Z,11.23
2018-08-13T23:33:06.787Z,10.30
2018-08-13T23:35:37.024Z,10.77
2018-08-13T23:38:08.460Z,11.67
2018-08-13T23:40:38.644Z,11.13
2018-08-13T23:43:08.832Z,29.03
2018-08-13T23:45:39.104Z,21.47
2018-08-13T23:48:09.268Z,18.60
2018-08-13T23:50:39.467Z,11.40
2018-08-13T23:53:09.676Z,16.23
2018-08-13T23:55:40.572Z,15.50
2018-08-13T23:58:13.536Z,14.53
